Snow/Ice From: 16-12-2017 16:00 Until: 17-12-2017 16:00 warning for: Snow/Ice Level: Yellow info button

Although rather usual in this region, locally or potentially dangerous phenomena are expected. (such as local winds, summer thunderstorms, rising streams or high waves) Be aware and pay attention to the latest weather updates, especially if you carry out activities exposed to weather or close to a stream or shoreline. 


Meteo18 Weather Cam more information Meteo18 Weather Cam


Thunder radar more information blitzortung!


warning for Snow/Ice more information rain snow radar


Visit our other weather sites:

Template documentation
and downloads

And another site



Weather Underground History page Text

Daily Summary for July 5, 2016 Units:  Metric    English   Both
« Previous Day
Next Day »
Daily Weekly Monthly Yearly Custom
  High: Low: Average:
Temperature: 27.9 °C 12.9 °C 19.8 °C
Dew Point: 17.0 °C 12.1 °C 14.7 °C
Humidity: 97 % 46 % 75 %
Wind Speed: 9.7 km/h 0.0 km/h 0.8 km/h
Wind Gust: 19.3 km/h - -
Wind:- - SE
Pressure: 1020.5 hPa 1017.8 hPa -
Precipitation: 0.0 mm    
Historical Graphs
 
 
Tabular Data for July 5, 2016
Time Temperature Dew Point Pressure Wind Wind Speed Wind Gust Humidity Rainfall Rate (Hourly)
00:07 15.6 °C 14.3 °C 1019.5 hPa Calm     92 % 0.0 mm
00:12 15.6 °C 14.5 °C 1019.2 hPa Calm     93 % 0.0 mm
00:17 15.6 °C 14.5 °C 1019.2 hPa Calm     93 % 0.0 mm
00:22 15.5 °C 14.2 °C 1019.2 hPa Calm     92 % 0.0 mm
00:32 15.4 °C 14.3 °C 1019.2 hPa Calm     93 % 0.0 mm
00:37 15.4 °C 14.3 °C 1019.2 hPa Calm     93 % 0.0 mm
00:42 15.3 °C 14.2 °C 1019.2 hPa Calm     93 % 0.0 mm
00:47 15.2 °C 14.1 °C 1019.2 hPa Calm   1.6 km/h 93 % 0.0 mm
00:52 15.1 °C 14.0 °C 1019.2 hPa Calm   1.6 km/h 93 % 0.0 mm
00:57 15.1 °C 14.1 °C 1018.8 hPa Calm   1.6 km/h 94 % 0.0 mm
01:02 15.1 °C 14.1 °C 1018.8 hPa Calm   1.6 km/h 94 % 0.0 mm
01:07 15.2 °C 14.2 °C 1018.8 hPa Calm     94 % 0.0 mm
01:12 15.2 °C 14.2 °C 1018.8 hPa Calm     94 % 0.0 mm
01:17 15.2 °C 14.1 °C 1018.8 hPa Calm   1.6 km/h 93 % 0.0 mm
01:22 15.1 °C 14.0 °C 1018.8 hPa Calm   1.6 km/h 93 % 0.0 mm
01:27 14.9 °C 13.8 °C 1018.8 hPa Calm   1.6 km/h 93 % 0.0 mm
01:37 14.7 °C 13.6 °C 1018.8 hPa Calm   1.6 km/h 93 % 0.0 mm
01:42 14.6 °C 13.6 °C 1018.8 hPa Calm   1.6 km/h 94 % 0.0 mm
01:52 14.4 °C 13.4 °C 1018.5 hPa Calm   1.6 km/h 94 % 0.0 mm
01:57 14.3 °C 13.3 °C 1018.5 hPa Calm   1.6 km/h 94 % 0.0 mm
02:02 14.2 °C 13.2 °C 1018.5 hPa Calm   1.6 km/h 94 % 0.0 mm
02:07 14.1 °C 13.1 °C 1018.5 hPa Calm   1.6 km/h 94 % 0.0 mm
02:12 14.0 °C 13.0 °C 1018.8 hPa Calm   1.6 km/h 94 % 0.0 mm
02:17 13.9 °C 12.9 °C 1018.8 hPa Calm   1.6 km/h 94 % 0.0 mm
02:22 13.7 °C 12.8 °C 1018.8 hPa Calm     94 % 0.0 mm
02:27 13.7 °C 12.9 °C 1018.8 hPa Calm     95 % 0.0 mm
02:32 13.6 °C 12.8 °C 1018.5 hPa Calm     95 % 0.0 mm
02:37 13.6 °C 12.8 °C 1018.5 hPa Calm     95 % 0.0 mm
02:42 13.4 °C 12.6 °C 1018.5 hPa Calm     95 % 0.0 mm
02:47 13.4 °C 12.6 °C 1018.5 hPa Calm     95 % 0.0 mm
02:52 13.3 °C 12.5 °C 1018.5 hPa Calm     95 % 0.0 mm
02:57 13.2 °C 12.6 °C 1018.5 hPa Calm     96 % 0.0 mm
03:02 13.2 °C 12.4 °C 1018.5 hPa Calm     95 % 0.0 mm
03:07 12.9 °C 12.1 °C 1018.5 hPa Calm     95 % 0.0 mm
03:12 12.9 °C 12.1 °C 1018.5 hPa Calm     95 % 0.0 mm
03:17 12.9 °C 12.3 °C 1018.5 hPa Calm     96 % 0.0 mm
03:22 13.3 °C 12.8 °C 1018.5 hPa Calm     97 % 0.0 mm
03:32 13.6 °C 13.1 °C 1018.5 hPa Calm     97 % 0.0 mm
03:37 13.8 °C 13.3 °C 1018.5 hPa Calm     97 % 0.0 mm
03:42 14.0 °C 13.5 °C 1018.5 hPa Calm     97 % 0.0 mm
03:47 14.2 °C 13.7 °C 1018.5 hPa Calm     97 % 0.0 mm
03:52 14.3 °C 13.8 °C 1018.5 hPa Calm     97 % 0.0 mm
04:02 14.6 °C 14.1 °C 1018.2 hPa Calm     97 % 0.0 mm
04:07 14.6 °C 14.1 °C 1018.2 hPa Calm     97 % 0.0 mm
04:12 14.7 °C 14.2 °C 1018.2 hPa Calm     97 % 0.0 mm
04:17 14.7 °C 14.2 °C 1018.2 hPa Calm     97 % 0.0 mm
04:22 14.7 °C 14.1 °C 1018.2 hPa Calm     96 % 0.0 mm
04:27 14.7 °C 14.1 °C 1018.2 hPa Calm     96 % 0.0 mm
04:32 14.8 °C 14.3 °C 1018.2 hPa Calm     97 % 0.0 mm
04:37 14.8 °C 14.3 °C 1017.8 hPa Calm     97 % 0.0 mm
04:42 14.8 °C 14.2 °C 1017.8 hPa Calm     96 % 0.0 mm
04:47 14.8 °C 14.2 °C 1017.8 hPa Calm   1.6 km/h 96 % 0.0 mm
04:52 14.8 °C 14.2 °C 1017.8 hPa Calm   1.6 km/h 96 % 0.0 mm
04:57 14.8 °C 14.2 °C 1017.8 hPa Calm   1.6 km/h 96 % 0.0 mm
05:02 14.9 °C 14.3 °C 1017.8 hPa Calm     96 % 0.0 mm
05:12 15.0 °C 14.4 °C 1017.8 hPa Calm     96 % 0.0 mm
05:17 15.0 °C 14.4 °C 1017.8 hPa Calm     96 % 0.0 mm
05:22 15.1 °C 14.5 °C 1017.8 hPa Calm     96 % 0.0 mm
05:27 15.2 °C 14.6 °C 1017.8 hPa Calm     96 % 0.0 mm
05:32 15.2 °C 14.6 °C 1017.8 hPa Calm   1.6 km/h 96 % 0.0 mm
05:37 15.3 °C 14.7 °C 1017.8 hPa NE 1.6 km/h 3.2 km/h 96 % 0.0 mm
05:42 15.3 °C 14.5 °C 1017.8 hPa NE 1.6 km/h 4.8 km/h 95 % 0.0 mm
05:47 15.4 °C 14.4 °C 1018.2 hPa Calm   6.4 km/h 94 % 0.0 mm
05:52 15.4 °C 14.4 °C 1018.2 hPa Calm   6.4 km/h 94 % 0.0 mm
05:57 15.4 °C 14.3 °C 1018.2 hPa Calm   4.8 km/h 93 % 0.0 mm
06:02 15.4 °C 14.3 °C 1018.2 hPa Calm   3.2 km/h 93 % 0.0 mm
06:12 15.4 °C 14.3 °C 1018.2 hPa Calm   1.6 km/h 93 % 0.0 mm
06:17 15.4 °C 14.3 °C 1018.2 hPa Calm     93 % 0.0 mm
06:22 15.4 °C 14.3 °C 1018.5 hPa Calm     93 % 0.0 mm
06:32 15.4 °C 14.3 °C 1018.5 hPa Calm     93 % 0.0 mm
06:37 15.4 °C 14.1 °C 1018.8 hPa Calm     92 % 0.0 mm
06:42 15.5 °C 14.2 °C 1018.8 hPa Calm   8.0 km/h 92 % 0.0 mm
06:47 15.5 °C 14.2 °C 1018.8 hPa Calm   8.0 km/h 92 % 0.0 mm
06:57 15.6 °C 14.1 °C 1018.8 hPa Calm   1.6 km/h 91 % 0.0 mm
07:02 15.6 °C 14.1 °C 1018.8 hPa Calm   1.6 km/h 91 % 0.0 mm
07:12 15.8 °C 14.5 °C 1018.8 hPa Calm     92 % 0.0 mm
07:17 15.8 °C 14.5 °C 1018.8 hPa Calm     92 % 0.0 mm
07:22 15.9 °C 14.6 °C 1018.8 hPa Calm     92 % 0.0 mm
07:27 15.9 °C 14.6 °C 1019.2 hPa Calm     92 % 0.0 mm
07:32 16.0 °C 14.5 °C 1019.2 hPa Calm   1.6 km/h 91 % 0.0 mm
07:42 16.2 °C 14.7 °C 1018.8 hPa Calm   1.6 km/h 91 % 0.0 mm
07:47 16.3 °C 14.8 °C 1018.8 hPa Calm     91 % 0.0 mm
07:52 16.4 °C 14.9 °C 1018.8 hPa Calm     91 % 0.0 mm
07:57 16.6 °C 15.1 °C 1018.8 hPa Calm     91 % 0.0 mm
08:02 16.6 °C 15.0 °C 1018.8 hPa Calm   1.6 km/h 90 % 0.0 mm
08:07 16.7 °C 14.9 °C 1019.2 hPa Calm   1.6 km/h 89 % 0.0 mm
08:12 16.9 °C 15.1 °C 1019.2 hPa Calm   1.6 km/h 89 % 0.0 mm
08:17 17.1 °C 15.1 °C 1018.8 hPa Calm   1.6 km/h 88 % 0.0 mm
08:22 17.2 °C 15.0 °C 1018.8 hPa Calm   1.6 km/h 87 % 0.0 mm
08:27 17.4 °C 15.2 °C 1018.8 hPa Calm   1.6 km/h 87 % 0.0 mm
08:32 17.5 °C 15.3 °C 1019.2 hPa Calm   1.6 km/h 87 % 0.0 mm
08:37 17.7 °C 15.3 °C 1019.2 hPa Calm   1.6 km/h 86 % 0.0 mm
08:42 17.8 °C 15.4 °C 1019.2 hPa Calm   1.6 km/h 86 % 0.0 mm
08:47 17.9 °C 15.3 °C 1019.2 hPa Calm   1.6 km/h 85 % 0.0 mm
08:52 17.9 °C 15.2 °C 1019.2 hPa Calm   3.2 km/h 84 % 0.0 mm
08:57 18.1 °C 15.4 °C 1019.2 hPa Calm   3.2 km/h 84 % 0.0 mm
09:02 18.4 °C 15.3 °C 1019.5 hPa Calm   3.2 km/h 82 % 0.0 mm
09:07 18.8 °C 15.3 °C 1019.5 hPa Calm   3.2 km/h 80 % 0.0 mm
09:12 18.9 °C 15.2 °C 1019.5 hPa Calm   3.2 km/h 79 % 0.0 mm
09:22 19.0 °C 15.1 °C 1019.5 hPa Calm   1.6 km/h 78 % 0.0 mm
09:27 19.1 °C 15.0 °C 1019.5 hPa Calm   1.6 km/h 77 % 0.0 mm
09:32 19.0 °C 14.7 °C 1019.5 hPa Calm   4.8 km/h 76 % 0.0 mm
09:37 19.5 °C 15.4 °C 1019.5 hPa Calm   6.4 km/h 77 % 0.0 mm
09:47 20.0 °C 15.2 °C 1019.9 hPa NE 1.6 km/h 9.7 km/h 74 % 0.0 mm
09:52 19.7 °C 14.9 °C 1019.9 hPa SSE 4.8 km/h 9.7 km/h 74 % 0.0 mm
10:02 20.1 °C 15.7 °C 1019.9 hPa SSW 3.2 km/h 11.3 km/h 76 % 0.0 mm
10:07 20.6 °C 15.6 °C 1019.9 hPa Calm   11.3 km/h 73 % 0.0 mm
10:17 20.0 °C 15.4 °C 1019.9 hPa Calm   8.0 km/h 75 % 0.0 mm
10:22 20.6 °C 16.0 °C 1019.9 hPa Calm   8.0 km/h 75 % 0.0 mm
10:27 21.3 °C 16.3 °C 1019.9 hPa Calm   8.0 km/h 73 % 0.0 mm
10:32 21.7 °C 16.2 °C 1019.9 hPa Calm   8.0 km/h 71 % 0.0 mm
10:37 21.4 °C 15.7 °C 1019.9 hPa Calm   4.8 km/h 70 % 0.0 mm
10:47 21.4 °C 15.7 °C 1019.9 hPa Calm   8.0 km/h 70 % 0.0 mm
10:52 21.8 °C 15.9 °C 1019.9 hPa Calm   8.0 km/h 69 % 0.0 mm
10:57 21.9 °C 16.2 °C 1019.9 hPa WSW 3.2 km/h 8.0 km/h 70 % 0.0 mm
11:02 22.2 °C 16.0 °C 1019.5 hPa Calm   6.4 km/h 68 % 0.0 mm
11:07 22.9 °C 16.9 °C 1019.5 hPa Calm   8.0 km/h 69 % 0.0 mm
11:12 23.3 °C 15.6 °C 1019.5 hPa SSW 4.8 km/h 8.0 km/h 62 % 0.0 mm
11:17 22.7 °C 15.3 °C 1019.5 hPa Calm   8.0 km/h 63 % 0.0 mm
11:22 22.2 °C 15.3 °C 1019.5 hPa WSW 1.6 km/h 4.8 km/h 65 % 0.0 mm
11:27 22.0 °C 15.6 °C 1019.5 hPa WSW 1.6 km/h 4.8 km/h 67 % 0.0 mm
11:32 21.9 °C 14.5 °C 1019.5 hPa WSW 3.2 km/h 3.2 km/h 63 % 0.0 mm
11:37 21.7 °C 14.8 °C 1019.5 hPa SW 1.6 km/h 6.4 km/h 65 % 0.0 mm
11:42 22.4 °C 15.7 °C 1019.5 hPa Calm   6.4 km/h 66 % 0.0 mm
11:52 23.1 °C 15.4 °C 1019.5 hPa Calm   6.4 km/h 62 % 0.0 mm
11:57 22.9 °C 15.0 °C 1019.5 hPa ENE 4.8 km/h 6.4 km/h 61 % 0.0 mm
12:02 22.8 °C 15.1 °C 1019.5 hPa Calm   9.7 km/h 62 % 0.0 mm
12:07 23.1 °C 14.6 °C 1019.5 hPa Calm   9.7 km/h 59 % 0.0 mm
12:12 22.9 °C 15.5 °C 1019.5 hPa SW 1.6 km/h 9.7 km/h 63 % 0.0 mm
12:17 23.3 °C 15.4 °C 1019.5 hPa SSW 1.6 km/h 4.8 km/h 61 % 0.0 mm
12:22 23.5 °C 16.0 °C 1019.5 hPa SW 1.6 km/h 4.8 km/h 63 % 0.0 mm
12:27 23.3 °C 15.4 °C 1019.5 hPa Calm   4.8 km/h 61 % 0.0 mm
12:32 23.7 °C 15.7 °C 1019.9 hPa East 1.6 km/h 3.2 km/h 61 % 0.0 mm
12:37 23.1 °C 14.6 °C 1019.5 hPa NE 1.6 km/h 6.4 km/h 59 % 0.0 mm
12:42 23.0 °C 14.8 °C 1019.5 hPa Calm   6.4 km/h 60 % 0.0 mm
12:47 23.4 °C 16.9 °C 1019.5 hPa Calm   6.4 km/h 67 % 0.0 mm
12:52 24.1 °C 15.8 °C 1019.5 hPa ENE 1.6 km/h 6.4 km/h 60 % 0.0 mm
12:57 24.3 °C 15.2 °C 1019.5 hPa Calm   8.0 km/h 57 % 0.0 mm
13:02 24.1 °C 15.0 °C 1019.5 hPa NE 6.4 km/h 8.0 km/h 57 % 0.0 mm
13:07 24.0 °C 15.0 °C 1019.5 hPa Calm   9.7 km/h 57 % 0.0 mm
13:12 23.9 °C 14.6 °C 1019.5 hPa Calm   9.7 km/h 56 % 0.0 mm
13:17 24.1 °C 14.8 °C 1019.5 hPa Calm   9.7 km/h 56 % 0.0 mm
13:22 24.5 °C 14.9 °C 1019.5 hPa Calm   6.4 km/h 55 % 0.0 mm
13:27 25.1 °C 16.8 °C 1019.5 hPa Calm   6.4 km/h 60 % 0.0 mm
13:32 25.0 °C 13.9 °C 1019.5 hPa South 3.2 km/h 6.4 km/h 50 % 0.0 mm
13:37 25.3 °C 14.4 °C 1019.5 hPa Calm   11.3 km/h 51 % 0.0 mm
13:42 26.1 °C 15.2 °C 1019.2 hPa WSW 3.2 km/h 11.3 km/h 51 % 0.0 mm
13:47 25.9 °C 14.7 °C 1019.2 hPa NE 1.6 km/h 11.3 km/h 50 % 0.0 mm
13:52 25.4 °C 14.5 °C 1019.2 hPa ESE 4.8 km/h 11.3 km/h 51 % 0.0 mm
13:57 25.6 °C 14.7 °C 1019.2 hPa ESE 1.6 km/h 11.3 km/h 51 % 0.0 mm
14:02 25.4 °C 14.8 °C 1019.2 hPa WSW 1.6 km/h 11.3 km/h 52 % 0.0 mm
14:12 25.7 °C 14.5 °C 1019.2 hPa NNE 3.2 km/h 9.7 km/h 50 % 0.0 mm
14:17 25.2 °C 14.9 °C 1019.2 hPa Calm   8.0 km/h 53 % 0.0 mm
14:22 25.6 °C 17.0 °C 1019.2 hPa Calm   8.0 km/h 59 % 0.0 mm
14:32 26.7 °C 16.0 °C 1019.2 hPa ESE 1.6 km/h 8.0 km/h 52 % 0.0 mm
14:37 26.9 °C 15.9 °C 1019.2 hPa WSW 4.8 km/h 8.0 km/h 51 % 0.0 mm
14:42 27.1 °C 15.1 °C 1019.2 hPa East 1.6 km/h 8.0 km/h 48 % 0.0 mm
14:47 27.1 °C 14.5 °C 1019.2 hPa Calm   8.0 km/h 46 % 0.0 mm
14:52 27.3 °C 15.0 °C 1019.2 hPa SW 1.6 km/h 11.3 km/h 47 % 0.0 mm
14:57 27.1 °C 14.5 °C 1019.2 hPa Calm   11.3 km/h 46 % 0.0 mm
15:02 26.6 °C 15.0 °C 1019.2 hPa NE 3.2 km/h 11.3 km/h 49 % 0.0 mm
15:07 25.4 °C 14.5 °C 1019.2 hPa Calm   8.0 km/h 51 % 0.0 mm
15:12 24.7 °C 15.6 °C 1019.2 hPa Calm   6.4 km/h 57 % 0.0 mm
15:17 24.9 °C 16.6 °C 1019.2 hPa Calm   6.4 km/h 60 % 0.0 mm
15:22 25.8 °C 15.5 °C 1019.2 hPa Calm   6.4 km/h 53 % 0.0 mm
15:27 25.9 °C 15.0 °C 1019.2 hPa West 1.6 km/h 9.7 km/h 51 % 0.0 mm
15:32 25.5 °C 15.2 °C 1019.2 hPa WSW 1.6 km/h 9.7 km/h 53 % 0.0 mm
15:37 25.1 °C 15.7 °C 1019.2 hPa Calm   9.7 km/h 56 % 0.0 mm
15:42 25.6 °C 15.9 °C 1019.2 hPa Calm   6.4 km/h 55 % 0.0 mm
15:47 26.3 °C 15.7 °C 1019.2 hPa Calm   4.8 km/h 52 % 0.0 mm
15:52 26.4 °C 15.1 °C 1019.2 hPa Calm   6.4 km/h 50 % 0.0 mm
15:57 26.6 °C 14.0 °C 1019.2 hPa WSW 3.2 km/h 6.4 km/h 46 % 0.0 mm
16:02 27.1 °C 15.5 °C 1019.2 hPa Calm   8.0 km/h 49 % 0.0 mm
16:07 27.7 °C 16.3 °C 1018.8 hPa Calm   8.0 km/h 50 % 0.0 mm
16:12 27.8 °C 15.5 °C 1019.2 hPa WSW 3.2 km/h 8.0 km/h 47 % 0.0 mm
16:17 27.6 °C 15.3 °C 1019.2 hPa SW 1.6 km/h 6.4 km/h 47 % 0.0 mm
16:22 27.7 °C 15.4 °C 1019.2 hPa Calm   12.9 km/h 47 % 0.0 mm
16:27 27.6 °C 15.9 °C 1019.2 hPa West 1.6 km/h 12.9 km/h 49 % 0.0 mm
16:32 27.7 °C 16.6 °C 1019.2 hPa Calm   12.9 km/h 51 % 0.0 mm
16:37 27.9 °C 15.5 °C 1019.2 hPa Calm   8.0 km/h 47 % 0.0 mm
16:42 27.8 °C 15.8 °C 1019.2 hPa SW 6.4 km/h 6.4 km/h 48 % 0.0 mm
16:47 27.4 °C 15.4 °C 1019.2 hPa ESE 1.6 km/h 8.0 km/h 48 % 0.0 mm
16:52 27.3 °C 15.0 °C 1019.2 hPa SW 4.8 km/h 8.0 km/h 47 % 0.0 mm
16:57 26.6 °C 15.3 °C 1019.2 hPa WSW 1.6 km/h 8.0 km/h 50 % 0.0 mm
17:02 26.4 °C 15.1 °C 1018.8 hPa Calm   8.0 km/h 50 % 0.0 mm
17:07 25.9 °C 15.6 °C 1019.2 hPa NE 6.4 km/h 8.0 km/h 53 % 0.0 mm
17:12 25.3 °C 15.3 °C 1018.8 hPa Calm   8.0 km/h 54 % 0.0 mm
17:17 24.9 °C 15.2 °C 1018.8 hPa Calm   8.0 km/h 55 % 0.0 mm
17:22 24.5 °C 14.9 °C 1018.8 hPa ENE 3.2 km/h 8.0 km/h 55 % 0.0 mm
17:32 24.3 °C 15.2 °C 1019.2 hPa Calm   6.4 km/h 57 % 0.0 mm
17:37 24.3 °C 16.3 °C 1019.2 hPa Calm   6.4 km/h 61 % 0.0 mm
17:42 25.2 °C 16.9 °C 1019.2 hPa Calm   4.8 km/h 60 % 0.0 mm
17:47 25.9 °C 16.2 °C 1018.8 hPa Calm   8.0 km/h 55 % 0.0 mm
17:52 26.4 °C 16.6 °C 1018.8 hPa Calm   8.0 km/h 55 % 0.0 mm
17:57 25.6 °C 15.6 °C 1018.8 hPa NE 4.8 km/h 8.0 km/h 54 % 0.0 mm
18:02 25.4 °C 16.0 °C 1018.8 hPa East 4.8 km/h 6.4 km/h 56 % 0.0 mm
18:12 24.9 °C 15.5 °C 1018.8 hPa ENE 8.0 km/h 16.1 km/h 56 % 0.0 mm
18:17 25.0 °C 16.2 °C 1018.8 hPa East 6.4 km/h 19.3 km/h 58 % 0.0 mm
18:22 24.6 °C 15.5 °C 1018.8 hPa NE 4.8 km/h 19.3 km/h 57 % 0.0 mm
18:27 23.9 °C 15.7 °C 1019.2 hPa NNE 3.2 km/h 17.7 km/h 60 % 0.0 mm
18:37 23.5 °C 15.3 °C 1019.2 hPa ENE 4.8 km/h 12.9 km/h 60 % 0.0 mm
18:42 23.9 °C 16.2 °C 1019.2 hPa ENE 3.2 km/h 12.9 km/h 62 % 0.0 mm
18:47 24.3 °C 15.8 °C 1019.2 hPa ENE 1.6 km/h 12.9 km/h 59 % 0.0 mm
18:52 24.5 °C 15.7 °C 1019.2 hPa Calm   11.3 km/h 58 % 0.0 mm
18:57 24.7 °C 15.3 °C 1019.2 hPa SE 3.2 km/h 11.3 km/h 56 % 0.0 mm
19:02 24.7 °C 15.3 °C 1019.2 hPa WSW 1.6 km/h 11.3 km/h 56 % 0.0 mm
19:07 24.6 °C 15.5 °C 1019.2 hPa East 1.6 km/h 9.7 km/h 57 % 0.0 mm
19:12 24.0 °C 15.2 °C 1019.2 hPa Calm   9.7 km/h 58 % 0.0 mm
19:17 23.6 °C 15.6 °C 1019.2 hPa NNE 1.6 km/h 12.9 km/h 61 % 0.0 mm
19:22 23.4 °C 15.4 °C 1019.2 hPa East 3.2 km/h 12.9 km/h 61 % 0.0 mm
19:27 23.3 °C 15.4 °C 1019.2 hPa SSE 3.2 km/h 12.9 km/h 61 % 0.0 mm
19:32 23.2 °C 15.3 °C 1019.2 hPa Calm   12.9 km/h 61 % 0.0 mm
19:37 23.1 °C 15.4 °C 1019.2 hPa ESE 6.4 km/h 11.3 km/h 62 % 0.0 mm
19:42 22.8 °C 15.1 °C 1019.2 hPa NE 9.7 km/h 12.9 km/h 62 % 0.0 mm
19:47 22.6 °C 15.2 °C 1019.2 hPa ENE 1.6 km/h 12.9 km/h 63 % 0.0 mm
19:52 22.3 °C 15.2 °C 1019.5 hPa NE 8.0 km/h 12.9 km/h 64 % 0.0 mm
19:57 22.2 °C 15.3 °C 1019.5 hPa NNE 3.2 km/h 11.3 km/h 65 % 0.0 mm
20:02 22.2 °C 15.5 °C 1019.5 hPa East 3.2 km/h 11.3 km/h 66 % 0.0 mm
20:12 22.0 °C 15.4 °C 1019.5 hPa East 3.2 km/h 9.7 km/h 66 % 0.0 mm
20:22 21.7 °C 15.3 °C 1019.5 hPa NNE 1.6 km/h 16.1 km/h 67 % 0.0 mm
20:32 21.3 °C 15.2 °C 1019.5 hPa Calm   9.7 km/h 68 % 0.0 mm
20:42 21.1 °C 15.2 °C 1019.5 hPa ENE 3.2 km/h 8.0 km/h 69 % 0.0 mm
20:47 21.0 °C 15.1 °C 1019.5 hPa ENE 1.6 km/h 9.7 km/h 69 % 0.0 mm
20:52 20.9 °C 15.0 °C 1019.5 hPa Calm   9.7 km/h 69 % 0.0 mm
20:57 20.7 °C 14.8 °C 1019.9 hPa NE 1.6 km/h 8.0 km/h 69 % 0.0 mm
21:02 20.6 °C 14.9 °C 1019.9 hPa Calm   6.4 km/h 70 % 0.0 mm
21:07 20.3 °C 14.9 °C 1019.9 hPa Calm   6.4 km/h 71 % 0.0 mm
21:12 20.2 °C 14.8 °C 1019.9 hPa Calm   6.4 km/h 71 % 0.0 mm
21:17 20.0 °C 14.8 °C 1019.9 hPa Calm   6.4 km/h 72 % 0.0 mm
21:22 19.8 °C 14.6 °C 1019.9 hPa Calm   4.8 km/h 72 % 0.0 mm
21:27 19.6 °C 14.6 °C 1019.9 hPa Calm   1.6 km/h 73 % 0.0 mm
21:32 19.4 °C 14.4 °C 1019.9 hPa Calm   3.2 km/h 73 % 0.0 mm
21:37 19.2 °C 14.5 °C 1019.9 hPa Calm   3.2 km/h 74 % 0.0 mm
21:42 19.1 °C 14.6 °C 1019.9 hPa Calm   3.2 km/h 75 % 0.0 mm
21:47 18.8 °C 14.5 °C 1019.9 hPa Calm     76 % 0.0 mm
21:52 18.6 °C 14.5 °C 1019.9 hPa Calm     77 % 0.0 mm
22:02 18.1 °C 14.2 °C 1019.9 hPa Calm     78 % 0.0 mm
22:07 18.0 °C 14.3 °C 1020.2 hPa Calm     79 % 0.0 mm
22:12 17.9 °C 14.2 °C 1020.2 hPa Calm     79 % 0.0 mm
22:17 17.8 °C 14.1 °C 1020.2 hPa Calm     79 % 0.0 mm
22:22 17.5 °C 14.0 °C 1020.2 hPa Calm     80 % 0.0 mm
22:32 17.1 °C 14.0 °C 1020.2 hPa Calm     82 % 0.0 mm
22:37 17.1 °C 13.8 °C 1020.2 hPa Calm     81 % 0.0 mm
22:42 17.0 °C 13.9 °C 1020.2 hPa Calm     82 % 0.0 mm
22:47 16.9 °C 13.8 °C 1020.5 hPa Calm     82 % 0.0 mm
22:52 16.7 °C 13.6 °C 1020.5 hPa Calm     82 % 0.0 mm
22:57 16.6 °C 13.7 °C 1020.5 hPa Calm     83 % 0.0 mm
23:02 16.4 °C 13.5 °C 1020.5 hPa Calm     83 % 0.0 mm
23:07 16.3 °C 13.4 °C 1020.5 hPa Calm     83 % 0.0 mm
23:12 16.3 °C 13.4 °C 1020.5 hPa Calm     83 % 0.0 mm
23:17 16.4 °C 13.5 °C 1020.5 hPa Calm     83 % 0.0 mm
23:22 16.3 °C 13.4 °C 1020.5 hPa Calm     83 % 0.0 mm
23:27 16.1 °C 13.4 °C 1020.5 hPa Calm     84 % 0.0 mm
23:32 15.9 °C 13.4 °C 1020.5 hPa Calm     85 % 0.0 mm
23:37 15.7 °C 13.2 °C 1020.5 hPa Calm     85 % 0.0 mm
23:42 15.6 °C 13.3 °C 1020.5 hPa Calm     86 % 0.0 mm
23:47 15.3 °C 13.0 °C 1020.5 hPa Calm     86 % 0.0 mm
23:52 15.1 °C 13.0 °C 1020.5 hPa Calm     87 % 0.0 mm
23:57 15.0 °C 13.0 °C 1020.5 hPa Calm     88 % 0.0 mm
Meteo18
Compliments of Weather Underground - 4 mb

Script developed by  Jim McMurry - jmcmurry@mwt.net Adapted for the template by  Wim van der Kuil - Leuven-Template.eu

You find our weather info also at:

European Weather Network

Weather Underground

Equipment we use:

Weather-station
Davis Vue

Weather-program
Meteohub

Weather-server
Raspberry PI 2 B+

Provider
1 and 1

Davis Vue

Meteohub

Raspberry PI 2 B+

1 and 1